createdAt,value
2018-07-19T00:03:10.818Z,20.40
2018-07-19T00:05:38.985Z,20.30
2018-07-19T00:11:06.631Z,20.20
2018-07-19T00:13:34.782Z,20.20
2018-07-19T00:16:02.954Z,20.10
2018-07-19T00:18:31.144Z,20.10
2018-07-19T00:20:59.284Z,20.00
2018-07-19T00:23:27.464Z,20.00
2018-07-19T00:25:56.677Z,19.90
2018-07-19T00:28:25.041Z,19.90
2018-07-19T00:30:53.193Z,19.90
2018-07-19T00:33:21.706Z,19.80
2018-07-19T00:35:50.287Z,19.80
2018-07-19T00:38:18.429Z,19.70
2018-07-19T00:40:46.598Z,19.70
2018-07-19T00:43:14.729Z,19.70
2018-07-19T00:45:42.889Z,19.60
2018-07-19T00:48:11.029Z,19.60
2018-07-19T00:50:39.172Z,19.50
2018-07-19T00:53:07.301Z,19.50
2018-07-19T00:55:35.434Z,19.50
2018-07-19T00:58:03.573Z,19.50
2018-07-19T01:00:31.717Z,19.40
2018-07-19T01:02:59.841Z,19.40
2018-07-19T01:05:27.979Z,19.40
2018-07-19T01:07:56.110Z,19.30
2018-07-19T01:10:24.307Z,19.30
2018-07-19T01:12:52.472Z,19.30
2018-07-19T01:15:20.618Z,19.30
2018-07-19T01:17:48.749Z,19.20
2018-07-19T01:20:16.891Z,19.20
2018-07-19T01:22:45.039Z,19.20
2018-07-19T01:25:13.161Z,19.20
2018-07-19T01:27:41.333Z,19.20
2018-07-19T01:30:09.493Z,19.10
2018-07-19T01:32:37.629Z,19.10
2018-07-19T01:35:05.985Z,19.10
2018-07-19T01:37:34.127Z,19.00
2018-07-19T01:40:02.273Z,19.00
2018-07-19T01:42:35.968Z,19.00
2018-07-19T01:45:04.843Z,19.00
2018-07-19T01:47:32.971Z,19.00
2018-07-19T01:50:01.102Z,18.90
2018-07-19T01:52:29.229Z,18.90
2018-07-19T01:54:57.352Z,18.90
2018-07-19T01:57:25.488Z,18.90
2018-07-19T01:59:53.614Z,18.90
2018-07-19T02:02:21.742Z,18.80
2018-07-19T02:04:49.856Z,18.80
2018-07-19T02:07:18.005Z,18.90
2018-07-19T02:09:46.119Z,18.80
2018-07-19T02:12:14.264Z,18.80
2018-07-19T02:14:42.386Z,18.80
2018-07-19T02:17:10.633Z,18.90
2018-07-19T02:19:38.762Z,18.80
2018-07-19T02:22:06.944Z,18.80
2018-07-19T02:24:35.065Z,18.80
2018-07-19T02:27:03.217Z,18.70
2018-07-19T02:29:31.331Z,18.70
2018-07-19T02:31:59.445Z,18.70
2018-07-19T02:34:27.572Z,18.70
2018-07-19T02:36:55.690Z,18.70
2018-07-19T02:39:23.821Z,18.60
2018-07-19T02:41:51.935Z,18.60
2018-07-19T02:44:20.058Z,18.60
2018-07-19T02:46:48.174Z,18.60
2018-07-19T02:49:16.295Z,18.50
2018-07-19T02:51:44.472Z,18.50
2018-07-19T02:54:12.830Z,18.50
2018-07-19T02:56:41.047Z,18.40
2018-07-19T02:59:09.174Z,18.40
2018-07-19T03:01:37.296Z,18.30
2018-07-19T03:04:05.429Z,18.30
2018-07-19T03:06:33.590Z,18.30
2018-07-19T03:09:01.676Z,18.30
2018-07-19T03:11:29.794Z,18.30
2018-07-19T03:13:57.934Z,18.20
2018-07-19T03:16:26.058Z,18.20
2018-07-19T03:18:54.174Z,18.20
2018-07-19T03:21:22.300Z,18.20
2018-07-19T03:23:50.410Z,18.10
2018-07-19T03:26:18.539Z,18.10
2018-07-19T03:28:46.649Z,18.10
2018-07-19T03:31:14.791Z,18.00
2018-07-19T03:33:42.917Z,18.00
2018-07-19T03:36:11.051Z,18.00
2018-07-19T03:38:39.163Z,18.00
2018-07-19T03:41:07.668Z,18.00
2018-07-19T03:43:35.773Z,17.90
2018-07-19T03:46:03.905Z,17.90
2018-07-19T03:48:32.021Z,17.90
2018-07-19T03:51:00.153Z,17.90
2018-07-19T03:53:28.275Z,17.90
2018-07-19T03:55:56.402Z,17.80
2018-07-19T03:58:24.533Z,17.80
2018-07-19T04:00:52.673Z,17.80
2018-07-19T04:03:20.790Z,17.80
2018-07-19T04:05:48.915Z,17.80
2018-07-19T04:08:17.029Z,17.80
2018-07-19T04:10:45.305Z,17.80
2018-07-19T04:13:13.420Z,17.80
2018-07-19T04:15:41.537Z,17.80
2018-07-19T04:18:09.661Z,17.80
2018-07-19T04:20:37.781Z,17.80
2018-07-19T04:23:05.912Z,17.80
2018-07-19T04:25:34.033Z,17.80
2018-07-19T04:28:02.157Z,17.80
2018-07-19T04:30:30.287Z,17.80
2018-07-19T04:32:58.423Z,17.80
2018-07-19T04:35:26.542Z,17.80
2018-07-19T04:37:54.663Z,17.80
2018-07-19T04:40:22.774Z,17.90
2018-07-19T04:42:50.927Z,17.80
2018-07-19T04:45:19.053Z,17.90
2018-07-19T04:47:47.181Z,17.90
2018-07-19T04:50:15.302Z,18.00
2018-07-19T04:52:43.468Z,18.00
2018-07-19T04:55:11.585Z,18.00
2018-07-19T04:57:39.706Z,18.00
2018-07-19T05:00:07.833Z,18.00
2018-07-19T05:02:35.953Z,18.00
2018-07-19T05:05:04.090Z,18.10
2018-07-19T05:07:32.210Z,18.10
2018-07-19T05:10:00.337Z,18.10
2018-07-19T05:12:28.466Z,18.10
2018-07-19T05:14:56.593Z,18.20
2018-07-19T05:17:24.721Z,18.20
2018-07-19T05:19:52.838Z,18.30
2018-07-19T05:24:48.862Z,18.30
2018-07-19T05:27:16.981Z,18.40
2018-07-19T05:29:45.136Z,18.40
2018-07-19T05:32:13.292Z,18.40
2018-07-19T05:34:41.431Z,18.50
2018-07-19T05:37:09.534Z,18.50
2018-07-19T05:39:37.682Z,18.50
2018-07-19T05:42:05.840Z,18.60
2018-07-19T05:44:33.913Z,18.60
2018-07-19T05:47:02.043Z,18.70
2018-07-19T05:49:30.173Z,18.70
2018-07-19T05:51:58.288Z,18.70
2018-07-19T05:54:26.409Z,18.80
2018-07-19T05:56:54.538Z,18.80
2018-07-19T05:59:23.057Z,18.90
2018-07-19T06:01:51.194Z,19.00
2018-07-19T06:04:19.345Z,19.00
2018-07-19T06:06:47.479Z,19.10
2018-07-19T06:09:15.608Z,19.20
2018-07-19T06:11:43.757Z,19.20
2018-07-19T06:14:11.885Z,19.30
2018-07-19T06:16:40.021Z,19.30
2018-07-19T06:19:08.154Z,19.40
2018-07-19T06:21:36.278Z,19.40
2018-07-19T06:24:04.407Z,19.50
2018-07-19T06:26:32.564Z,19.60
2018-07-19T06:29:00.701Z,19.60
2018-07-19T06:31:28.830Z,19.70
2018-07-19T06:33:56.959Z,19.80
2018-07-19T06:36:27.013Z,19.90
2018-07-19T06:38:55.098Z,19.90
2018-07-19T06:41:23.262Z,20.00
2018-07-19T06:43:51.401Z,20.00
2018-07-19T06:46:19.559Z,20.10
2018-07-19T06:48:47.698Z,20.20
2018-07-19T06:53:43.863Z,20.30
2018-07-19T06:56:12.065Z,20.30
2018-07-19T06:58:40.210Z,20.40
2018-07-19T07:01:08.357Z,20.50
2018-07-19T07:03:36.540Z,20.50
2018-07-19T07:06:04.972Z,20.60
2018-07-19T07:08:33.094Z,20.60
2018-07-19T07:11:01.262Z,20.70
2018-07-19T07:13:29.411Z,20.80
2018-07-19T07:15:57.590Z,20.90
2018-07-19T07:18:25.714Z,21.00
2018-07-19T07:20:53.845Z,21.00
2018-07-19T07:23:21.984Z,21.10
2018-07-19T07:25:52.957Z,21.10
2018-07-19T07:28:22.513Z,21.20
2018-07-19T07:30:50.862Z,21.30
2018-07-19T07:33:19.533Z,21.30
2018-07-19T07:35:48.319Z,21.40
2018-07-19T07:38:17.513Z,21.40
2018-07-19T07:40:45.798Z,21.50
2018-07-19T07:43:13.935Z,21.60
2018-07-19T07:45:42.652Z,21.70
2018-07-19T07:48:10.778Z,21.70
2018-07-19T07:50:38.938Z,21.80
2018-07-19T07:53:07.068Z,21.90
2018-07-19T07:55:35.215Z,21.90
2018-07-19T07:58:03.346Z,21.90
2018-07-19T08:00:31.546Z,22.00
2018-07-19T08:02:59.857Z,22.00
2018-07-19T08:05:28.014Z,22.10
2018-07-19T08:07:56.142Z,22.10
2018-07-19T08:10:24.281Z,22.20
2018-07-19T08:12:52.464Z,22.20
2018-07-19T08:15:20.661Z,22.30
2018-07-19T08:17:48.793Z,22.30
2018-07-19T08:20:16.985Z,22.30
2018-07-19T08:22:45.126Z,22.40
2018-07-19T08:25:13.576Z,22.40
2018-07-19T08:27:41.702Z,22.40
2018-07-19T08:30:09.858Z,22.40
2018-07-19T08:32:38.014Z,22.40
2018-07-19T08:35:06.210Z,22.50
2018-07-19T08:37:34.358Z,22.50
2018-07-19T08:40:02.521Z,22.50
2018-07-19T08:42:30.729Z,22.60
2018-07-19T08:44:58.878Z,22.60
2018-07-19T08:47:27.025Z,22.70
2018-07-19T08:49:55.157Z,22.70
2018-07-19T08:52:23.309Z,22.70
2018-07-19T08:54:51.446Z,22.80
2018-07-19T08:57:19.590Z,22.80
2018-07-19T08:59:47.720Z,22.90
2018-07-19T09:02:15.884Z,22.90
2018-07-19T09:04:44.017Z,22.90
2018-07-19T09:09:40.132Z,23.00
2018-07-19T09:12:08.277Z,23.10
2018-07-19T09:14:36.445Z,23.20
2018-07-19T09:17:04.798Z,23.20
2018-07-19T09:19:32.977Z,23.20
2018-07-19T09:22:01.077Z,23.20
2018-07-19T09:24:29.206Z,23.30
2018-07-19T09:26:57.618Z,23.30
2018-07-19T09:29:25.745Z,23.30
2018-07-19T09:31:53.884Z,23.40
2018-07-19T09:34:22.065Z,23.40
2018-07-19T09:36:50.253Z,23.50
2018-07-19T09:39:18.398Z,23.50
2018-07-19T09:41:46.571Z,23.60
2018-07-19T09:44:14.694Z,23.60
2018-07-19T09:46:42.852Z,23.70
2018-07-19T09:49:11.009Z,23.80
2018-07-19T09:51:39.142Z,23.90
2018-07-19T09:54:07.313Z,24.00
2018-07-19T09:56:35.481Z,24.10
2018-07-19T09:59:03.762Z,24.20
2018-07-19T10:01:31.902Z,24.20
2018-07-19T10:04:00.022Z,24.30
2018-07-19T10:06:28.173Z,24.40
2018-07-19T10:08:56.297Z,24.50
2018-07-19T10:11:24.440Z,24.50
2018-07-19T10:13:52.562Z,24.60
2018-07-19T10:16:20.690Z,24.70
2018-07-19T10:18:48.850Z,24.70
2018-07-19T10:21:16.992Z,24.80
2018-07-19T10:23:45.136Z,24.90
2018-07-19T10:26:13.274Z,24.90
2018-07-19T10:28:41.561Z,25.00
2018-07-19T10:31:09.721Z,25.10
2018-07-19T10:33:37.852Z,25.20
2018-07-19T10:36:05.991Z,25.20
2018-07-19T10:38:34.132Z,25.30
2018-07-19T10:41:02.454Z,25.30
2018-07-19T10:43:30.587Z,25.30
2018-07-19T10:45:58.748Z,25.40
2018-07-19T10:48:26.882Z,25.40
2018-07-19T10:50:55.015Z,25.40
2018-07-19T10:53:23.150Z,25.40
2018-07-19T10:55:51.309Z,25.40
2018-07-19T10:58:19.462Z,25.50
2018-07-19T11:00:47.621Z,25.50
2018-07-19T11:03:15.765Z,25.60
2018-07-19T11:05:43.922Z,25.60
2018-07-19T11:08:12.087Z,25.60
2018-07-19T11:10:40.216Z,25.70
2018-07-19T11:13:08.487Z,25.70
2018-07-19T11:15:36.600Z,25.80
2018-07-19T11:18:04.846Z,25.80
2018-07-19T11:20:32.973Z,25.70
2018-07-19T11:23:01.118Z,25.70
2018-07-19T11:25:29.251Z,25.70
2018-07-19T11:27:57.417Z,25.60
2018-07-19T11:30:25.579Z,25.70
2018-07-19T11:32:53.698Z,25.70
2018-07-19T11:35:21.901Z,25.70
2018-07-19T11:37:50.024Z,25.70
2018-07-19T11:40:18.160Z,25.80
2018-07-19T11:42:46.290Z,25.80
2018-07-19T11:45:14.431Z,25.80
2018-07-19T11:47:42.598Z,25.80
2018-07-19T11:50:10.729Z,25.90
2018-07-19T11:52:38.898Z,25.90
2018-07-19T11:55:06.986Z,25.90
2018-07-19T11:57:35.120Z,25.90
2018-07-19T12:00:03.261Z,26.00
2018-07-19T12:02:31.384Z,26.00
2018-07-19T12:04:59.510Z,26.10
2018-07-19T12:07:27.641Z,26.10
2018-07-19T12:09:55.811Z,26.20
2018-07-19T12:12:23.949Z,26.20
2018-07-19T12:14:52.095Z,26.30
2018-07-19T12:17:20.209Z,26.40
2018-07-19T12:19:48.340Z,26.50
2018-07-19T12:22:16.454Z,26.50
2018-07-19T12:24:44.670Z,26.60
2018-07-19T12:27:12.806Z,26.70
2018-07-19T12:29:40.941Z,26.70
2018-07-19T12:32:09.059Z,26.70
2018-07-19T12:34:37.246Z,26.70
2018-07-19T12:37:05.454Z,26.80
2018-07-19T12:39:33.585Z,26.90
2018-07-19T12:42:01.825Z,26.80
2018-07-19T12:44:29.951Z,26.90
2018-07-19T12:46:58.085Z,26.90
2018-07-19T12:49:26.209Z,26.90
2018-07-19T12:51:54.341Z,26.90
2018-07-19T12:54:22.474Z,27.00
2018-07-19T12:56:50.610Z,27.00
2018-07-19T12:59:18.741Z,27.10
2018-07-19T13:01:46.914Z,27.10
2018-07-19T13:04:15.072Z,27.10
2018-07-19T13:06:43.281Z,27.00
2018-07-19T13:09:11.409Z,27.00
2018-07-19T13:11:39.622Z,27.10
2018-07-19T13:14:07.790Z,27.00
2018-07-19T13:16:35.938Z,27.00
2018-07-19T13:19:04.103Z,27.00
2018-07-19T13:21:32.309Z,27.00
2018-07-19T13:24:00.456Z,27.00
2018-07-19T13:26:28.630Z,26.90
2018-07-19T13:28:56.746Z,26.90
2018-07-19T13:31:24.960Z,26.90
2018-07-19T13:33:53.113Z,26.90
2018-07-19T13:36:21.321Z,26.90
2018-07-19T13:38:49.534Z,26.90
2018-07-19T13:41:18.033Z,26.90
2018-07-19T13:43:46.313Z,26.90
2018-07-19T13:46:14.480Z,26.90
2018-07-19T13:48:43.407Z,26.80
2018-07-19T13:51:11.539Z,26.80
2018-07-19T13:54:15.442Z,26.80
2018-07-19T13:56:43.822Z,26.80
2018-07-19T13:59:12.218Z,26.80
2018-07-19T14:01:40.679Z,26.80
2018-07-19T14:04:09.059Z,26.80
2018-07-19T14:06:37.183Z,26.90
2018-07-19T14:09:10.318Z,26.90
2018-07-19T14:11:38.507Z,27.00
2018-07-19T14:14:06.654Z,27.00
2018-07-19T14:16:34.793Z,27.00
2018-07-19T14:19:02.985Z,27.00
2018-07-19T14:23:59.070Z,26.90
2018-07-19T14:26:27.242Z,26.90
2018-07-19T14:28:55.407Z,26.90
2018-07-19T14:31:23.527Z,26.90
2018-07-19T14:33:51.703Z,26.90
2018-07-19T14:36:19.921Z,26.90
2018-07-19T14:38:48.057Z,26.80
2018-07-19T14:41:16.216Z,26.80
2018-07-19T14:43:44.341Z,26.80
2018-07-19T14:46:12.474Z,26.80
2018-07-19T14:48:40.632Z,26.70
2018-07-19T14:51:09.378Z,26.70
2018-07-19T14:53:37.510Z,26.70
2018-07-19T14:56:05.774Z,26.70
2018-07-19T14:58:33.896Z,26.70
2018-07-19T15:01:02.050Z,26.70
2018-07-19T15:03:30.209Z,26.70
2018-07-19T15:05:58.339Z,26.70
2018-07-19T15:08:26.495Z,26.70
2018-07-19T15:10:54.614Z,26.80
2018-07-19T15:13:22.910Z,26.80
2018-07-19T15:15:51.059Z,26.80
2018-07-19T15:18:19.193Z,26.80
2018-07-19T15:23:15.230Z,26.80
2018-07-19T15:25:43.370Z,26.80
2018-07-19T15:28:11.518Z,26.80
2018-07-19T15:30:39.684Z,26.80
2018-07-19T15:33:07.889Z,26.80
2018-07-19T15:35:36.144Z,26.80
2018-07-19T15:38:04.328Z,26.80
2018-07-19T15:40:32.510Z,26.80
2018-07-19T15:43:00.700Z,26.80
2018-07-19T15:45:28.851Z,26.80
2018-07-19T15:47:57.074Z,26.70
2018-07-19T15:50:25.219Z,26.70
2018-07-19T15:52:53.401Z,26.70
2018-07-19T15:55:21.695Z,26.70
2018-07-19T15:57:49.758Z,26.70
2018-07-19T16:00:18.061Z,26.60
2018-07-19T16:02:46.195Z,26.60
2018-07-19T16:05:14.346Z,26.60
2018-07-19T16:07:42.686Z,26.60
2018-07-19T16:10:11.022Z,26.60
2018-07-19T16:12:39.184Z,26.60
2018-07-19T16:15:07.356Z,26.60
2018-07-19T16:17:35.542Z,26.60
2018-07-19T16:20:03.712Z,26.60
2018-07-19T16:22:31.899Z,26.60
2018-07-19T16:25:00.075Z,26.60
2018-07-19T16:27:28.225Z,26.60
2018-07-19T16:29:56.382Z,26.60
2018-07-19T16:32:24.568Z,26.60
2018-07-19T16:34:52.758Z,26.60
2018-07-19T16:37:21.215Z,26.60
2018-07-19T16:39:49.382Z,26.60
2018-07-19T16:42:17.506Z,26.60
2018-07-19T16:44:45.711Z,26.60
2018-07-19T16:47:13.866Z,26.60
2018-07-19T16:49:41.999Z,26.60
2018-07-19T16:52:10.210Z,26.60
2018-07-19T16:54:38.369Z,26.60
2018-07-19T16:57:06.754Z,26.60
2018-07-19T16:59:34.974Z,26.60
2018-07-19T17:02:03.157Z,26.60
2018-07-19T17:04:31.310Z,26.60
2018-07-19T17:06:59.524Z,26.50
2018-07-19T17:09:27.683Z,26.50
2018-07-19T17:11:55.900Z,26.50
2018-07-19T17:14:24.163Z,26.50
2018-07-19T17:16:52.316Z,26.50
2018-07-19T17:19:20.475Z,26.50
2018-07-19T17:21:48.629Z,26.50
2018-07-19T17:24:16.973Z,26.50
2018-07-19T17:29:13.155Z,26.50
2018-07-19T17:31:41.291Z,26.40
2018-07-19T17:34:09.445Z,26.40
2018-07-19T17:36:37.630Z,26.40
2018-07-19T17:39:08.981Z,26.40
2018-07-19T17:41:37.111Z,26.40
2018-07-19T17:44:05.306Z,26.40
2018-07-19T17:46:33.437Z,26.40
2018-07-19T17:49:01.680Z,26.30
2018-07-19T17:51:29.842Z,26.30
2018-07-19T17:53:57.998Z,26.30
2018-07-19T17:56:26.130Z,26.30
2018-07-19T17:58:54.287Z,26.20
2018-07-19T18:01:22.535Z,26.20
2018-07-19T18:03:50.679Z,26.20
2018-07-19T18:06:18.809Z,26.20
2018-07-19T18:08:46.928Z,26.20
2018-07-19T18:11:15.074Z,26.20
2018-07-19T18:13:43.191Z,26.20
2018-07-19T18:16:11.337Z,26.20
2018-07-19T18:18:39.472Z,26.20
2018-07-19T18:23:35.533Z,26.10
2018-07-19T18:26:03.657Z,26.10
2018-07-19T18:28:31.809Z,26.10
2018-07-19T18:30:59.982Z,26.10
2018-07-19T18:33:28.179Z,26.00
2018-07-19T18:35:56.322Z,26.10
2018-07-19T18:38:24.453Z,26.00
2018-07-19T18:40:52.694Z,26.00
2018-07-19T18:43:20.838Z,26.00
2018-07-19T18:45:48.968Z,26.00
2018-07-19T18:48:17.101Z,26.00
2018-07-19T18:50:45.289Z,25.90
2018-07-19T18:53:13.433Z,25.90
2018-07-19T18:55:41.586Z,25.90
2018-07-19T18:58:09.717Z,25.90
2018-07-19T19:00:37.854Z,25.90
2018-07-19T19:03:06.490Z,25.80
2018-07-19T19:05:34.742Z,25.70
2018-07-19T19:08:03.127Z,25.70
2018-07-19T19:10:31.280Z,25.70
2018-07-19T19:12:59.410Z,25.60
2018-07-19T19:15:27.615Z,25.60
2018-07-19T19:17:55.746Z,25.50
2018-07-19T19:22:51.876Z,25.50
2018-07-19T19:25:19.999Z,25.40
2018-07-19T19:27:48.451Z,25.40
2018-07-19T19:30:16.578Z,25.30
2018-07-19T19:32:44.753Z,25.30
2018-07-19T19:35:12.881Z,25.30
2018-07-19T19:37:41.018Z,25.20
2018-07-19T19:40:09.417Z,25.20
2018-07-19T19:42:37.551Z,25.20
2018-07-19T19:45:05.797Z,25.20
2018-07-19T19:47:33.892Z,25.20
2018-07-19T19:50:02.197Z,25.20
2018-07-19T19:52:30.345Z,25.10
2018-07-19T19:54:59.528Z,25.10
2018-07-19T19:57:27.665Z,25.10
2018-07-19T19:59:55.936Z,25.10
2018-07-19T20:02:24.071Z,25.10
2018-07-19T20:04:52.205Z,25.10
2018-07-19T20:07:20.329Z,25.10
2018-07-19T20:09:48.542Z,25.00
2018-07-19T20:12:16.647Z,25.00
2018-07-19T20:14:44.881Z,25.00
2018-07-19T20:17:13.114Z,25.00
2018-07-19T20:19:41.258Z,24.90
2018-07-19T20:22:09.386Z,24.90
2018-07-19T20:24:37.541Z,24.90
2018-07-19T20:27:05.689Z,24.90
2018-07-19T20:29:33.966Z,24.80
2018-07-19T20:32:02.104Z,24.90
2018-07-19T20:34:30.242Z,24.80
2018-07-19T20:36:58.358Z,24.70
2018-07-19T20:39:26.505Z,24.70
2018-07-19T20:41:54.640Z,24.70
2018-07-19T20:44:22.774Z,24.70
2018-07-19T20:46:50.910Z,24.60
2018-07-19T20:49:19.050Z,24.60
2018-07-19T20:51:47.190Z,24.50
2018-07-19T20:54:15.317Z,24.50
2018-07-19T20:56:43.473Z,24.40
2018-07-19T20:59:11.632Z,24.40
2018-07-19T21:01:39.861Z,24.30
2018-07-19T21:04:08.003Z,24.30
2018-07-19T21:06:36.254Z,24.20
2018-07-19T21:09:07.472Z,24.20
2018-07-19T21:11:35.745Z,24.10
2018-07-19T21:14:03.857Z,24.10
2018-07-19T21:16:31.995Z,24.00
2018-07-19T21:19:00.115Z,24.00
2018-07-19T21:21:28.238Z,23.90
2018-07-19T21:23:56.349Z,23.90
2018-07-19T21:26:24.541Z,23.90
2018-07-19T21:28:52.657Z,23.80
2018-07-19T21:31:20.997Z,23.80
2018-07-19T21:33:49.122Z,23.80
2018-07-19T21:36:17.249Z,23.70
2018-07-19T21:41:13.285Z,23.70
2018-07-19T21:46:09.317Z,23.70
2018-07-19T21:48:37.461Z,23.60
2018-07-19T21:51:05.646Z,23.60
2018-07-19T21:53:33.806Z,23.60
2018-07-19T21:56:02.019Z,23.60
2018-07-19T21:58:30.110Z,23.60
2018-07-19T22:01:03.702Z,23.50
2018-07-19T22:03:31.843Z,23.50
2018-07-19T22:05:59.953Z,23.50
2018-07-19T22:08:28.147Z,23.40
2018-07-19T22:10:56.274Z,23.40
2018-07-19T22:13:24.394Z,23.30
2018-07-19T22:15:52.522Z,23.30
2018-07-19T22:18:20.674Z,23.30
2018-07-19T22:20:48.805Z,23.20
2018-07-19T22:23:16.954Z,23.10
2018-07-19T22:25:45.180Z,23.10
2018-07-19T22:28:13.306Z,23.00
2018-07-19T22:30:41.429Z,23.00
2018-07-19T22:33:09.653Z,22.90
2018-07-19T22:35:38.046Z,22.90
2018-07-19T22:38:06.186Z,22.80
2018-07-19T22:40:34.449Z,22.80
2018-07-19T22:43:02.669Z,22.70
2018-07-19T22:45:30.802Z,22.60
2018-07-19T22:47:59.184Z,22.60
2018-07-19T22:50:27.554Z,22.50
2018-07-19T22:52:55.747Z,22.50
2018-07-19T22:55:23.819Z,22.40
2018-07-19T22:57:52.170Z,22.40
2018-07-19T23:00:20.309Z,22.30
2018-07-19T23:02:48.486Z,22.30
2018-07-19T23:05:16.606Z,22.20
2018-07-19T23:07:44.817Z,22.20
2018-07-19T23:10:12.933Z,22.10
2018-07-19T23:12:41.076Z,22.10
2018-07-19T23:15:09.219Z,22.00
2018-07-19T23:17:37.346Z,22.00
2018-07-19T23:20:05.492Z,21.90
2018-07-19T23:22:33.615Z,21.90
2018-07-19T23:25:01.746Z,21.80
2018-07-19T23:27:29.868Z,21.80
2018-07-19T23:29:58.001Z,21.80
2018-07-19T23:32:26.129Z,21.70
2018-07-19T23:34:54.261Z,21.70
2018-07-19T23:37:26.547Z,21.60
2018-07-19T23:40:31.300Z,21.60
2018-07-19T23:45:37.662Z,21.50
2018-07-19T23:48:05.789Z,21.50
2018-07-19T23:50:33.909Z,21.50
2018-07-19T23:53:02.036Z,21.40
2018-07-19T23:55:30.177Z,21.40
2018-07-19T23:57:58.297Z,21.40
